Time;durP1;ratioP1;P1;durP2;ratioP2;P2;SDS_P1;SDS_P2;PMS_P1;PMS_P2;Temp;Humidity;BMP_temperature;BMP_pressure;BME280_temperature;BME280_humidity;BME280_pressure;Samples;Min_cycle;Max_cycle;Signal;HPM_P1;HPM_P2
2022/09/01 00:01:27;;;;;;;9.55;3.67;;;;;;;24.98;49.49;98482.06;4975532;28;20027;-78
2022/09/01 00:03:53;;;;;;;11.50;4.47;;;;;;;24.94;49.13;98484.38;4959120;28;20532;-78
2022/09/01 00:06:22;;;;;;;12.70;3.97;;;;;;;24.96;49.41;98478.81;4975700;28;20034;-78
2022/09/01 00:08:54;;;;;;;15.23;4.40;;;;;;;24.98;49.10;98479.41;4959732;28;20039;-79
2022/09/01 00:11:21;;;;;;;12.15;4.53;;;;;;;25.01;48.92;98489.66;4996900;28;20521;-79
2022/09/01 00:13:46;;;;;;;12.68;4.63;;;;;;;25.00;49.22;98486.19;4965676;28;20023;-78
2022/09/01 00:16:14;;;;;;;13.23;4.47;;;;;;;24.99;49.42;98489.88;4965612;28;20057;-78
2022/09/01 00:18:41;;;;;;;11.73;4.60;;;;;;;25.00;48.91;98493.34;4966118;28;20057;-78
2022/09/01 00:21:08;;;;;;;12.90;4.50;;;;;;;24.94;49.34;98495.03;4982137;28;20038;-78
2022/09/01 00:23:33;;;;;;;9.10;3.97;;;;;;;24.90;49.04;98496.50;4965535;28;20030;-79
2022/09/01 00:25:59;;;;;;;11.00;4.30;;;;;;;24.86;49.53;98493.47;4999149;28;20509;-79
2022/09/01 00:28:24;;;;;;;9.65;4.53;;;;;;;24.87;49.63;98486.25;4997864;28;20113;-78
2022/09/01 00:30:50;;;;;;;11.25;4.40;;;;;;;24.87;49.99;98489.72;4981774;28;20383;-78
2022/09/01 00:33:15;;;;;;;14.23;4.43;;;;;;;24.87;49.94;98496.94;4981647;28;20023;-78
2022/09/01 00:35:41;;;;;;;9.95;4.53;;;;;;;24.86;50.06;98490.78;4981897;28;20046;-78
2022/09/01 00:38:06;;;;;;;16.45;4.75;;;;;;;24.87;49.87;98495.06;4998908;28;20053;-78
2022/09/01 00:40:32;;;;;;;8.55;4.50;;;;;;;24.86;49.99;98501.47;4982127;28;20454;-78
2022/09/01 00:42:59;;;;;;;14.18;4.55;;;;;;;24.83;50.27;98501.88;4998555;28;20030;-78
2022/09/01 00:45:24;;;;;;;8.33;4.30;;;;;;;24.81;50.31;98498.63;4965565;28;20409;-77
2022/09/01 00:47:50;;;;;;;8.55;4.30;;;;;;;24.76;50.12;98495.75;4981637;28;20041;-77
2022/09/01 00:50:16;;;;;;;10.57;4.35;;;;;;;24.74;50.02;98487.16;4965021;28;20061;-78
2022/09/01 00:52:44;;;;;;;15.50;4.43;;;;;;;24.74;50.47;98482.63;4981446;28;20092;-78
2022/09/01 00:55:20;;;;;;;13.52;4.10;;;;;;;24.69;50.56;98477.13;4981763;28;20512;-78
2022/09/01 00:57:46;;;;;;;11.75;4.50;;;;;;;24.63;50.44;98477.97;4981547;28;20034;-78
2022/09/01 01:00:17;;;;;;;7.78;4.03;;;;;;;24.60;50.52;98483.75;4982144;28;20101;-78
2022/09/01 01:02:43;;;;;;;9.77;4.20;;;;;;;24.62;50.71;98475.53;4981750;28;20536;-78
2022/09/01 01:05:09;;;;;;;11.48;4.25;;;;;;;24.61;50.34;98480.06;4981651;28;20026;-78
2022/09/01 01:07:37;;;;;;;14.43;4.47;;;;;;;24.60;50.56;98467.75;4980999;28;20049;-78
2022/09/01 01:10:05;;;;;;;9.57;4.40;;;;;;;24.58;50.34;98463.66;4981442;28;20416;-78
2022/09/01 01:12:32;;;;;;;14.68;4.63;;;;;;;24.62;50.55;98462.19;4981833;28;20034;-78
2022/09/01 01:14:57;;;;;;;10.88;4.53;;;;;;;24.58;50.59;98453.00;4998809;28;20486;-78
2022/09/01 01:17:23;;;;;;;12.18;4.43;;;;;;;24.49;50.70;98444.38;4997205;28;20145;-77
2022/09/01 01:23:15;;;;;;;10.73;4.40;;;;;;;24.43;51.00;98447.91;4981141;28;20038;-78
2022/09/01 01:25:52;;;;;;;11.75;4.63;;;;;;;24.40;51.17;98454.50;4994096;28;20449;-78
2022/09/01 01:28:20;;;;;;;10.25;4.15;;;;;;;24.35;51.35;98444.47;4978589;28;20042;-78
2022/09/01 01:30:51;;;;;;;12.55;4.53;;;;;;;24.37;51.05;98442.41;4996029;28;20023;-78
2022/09/01 01:33:18;;;;;;;7.20;3.90;;;;;;;24.41;50.82;98444.63;4994088;28;20027;-80
2022/09/01 01:35:43;;;;;;;12.35;4.10;;;;;;;24.38;50.86;98446.72;4978034;28;20066;-78
2022/09/01 01:38:10;;;;;;;11.70;3.83;;;;;;;24.41;50.87;98441.97;4964197;28;20582;-79
2022/09/01 01:40:36;;;;;;;11.57;4.28;;;;;;;24.36;50.85;98450.59;5013233;28;20038;-79
2022/09/01 01:43:02;;;;;;;11.85;4.05;;;;;;;24.30;51.18;98446.13;4980949;28;20575;-79
2022/09/01 01:45:28;;;;;;;8.80;4.10;;;;;;;24.26;51.16;98439.56;4981590;28;20026;-78
2022/09/01 01:47:55;;;;;;;11.80;4.10;;;;;;;24.23;51.41;98432.81;4997060;28;20084;-79
2022/09/01 01:50:34;;;;;;;10.02;3.95;;;;;;;24.22;50.76;98431.19;4981424;28;20037;-78
2022/09/01 01:53:01;;;;;;;14.23;4.20;;;;;;;24.21;50.96;98434.91;4965923;28;20030;-78
2022/09/01 01:55:27;;;;;;;12.15;3.67;;;;;;;24.22;50.72;98425.03;4981201;28;20032;-78
2022/09/01 01:57:55;;;;;;;8.50;3.80;;;;;;;24.23;50.61;98426.66;4980882;28;20073;-79
2022/09/01 02:00:22;;;;;;;9.52;4.03;;;;;;;24.25;50.69;98433.44;4981414;28;20061;-78
2022/09/01 02:02:51;;;;;;;11.13;3.88;;;;;;;24.29;50.44;98429.31;4996558;28;20034;-79
2022/09/01 02:05:30;;;;;;;10.07;3.85;;;;;;;24.27;50.58;98430.53;4965359;28;20453;-79
2022/09/01 02:08:04;;;;;;;11.68;3.72;;;;;;;24.22;50.95;98427.72;4997058;28;20496;-79
2022/09/01 02:10:32;;;;;;;12.10;3.63;;;;;;;24.22;50.77;98436.50;4976973;28;20113;-79
2022/09/01 02:13:07;;;;;;;14.55;4.18;;;;;;;24.20;50.77;98438.59;4945126;28;20104;-79
2022/09/01 02:15:46;;;;;;;7.75;3.58;;;;;;;24.13;50.95;98445.78;4964061;28;20034;-79
2022/09/01 02:18:15;;;;;;;6.95;3.67;;;;;;;24.07;51.10;98446.63;4978556;28;20233;-79
2022/09/01 02:20:41;;;;;;;10.07;3.90;;;;;;;24.06;50.96;98445.00;4961363;28;20038;-79
2022/09/01 02:23:14;;;;;;;10.90;3.42;;;;;;;24.06;50.79;98440.50;4961009;28;20034;-83
2022/09/01 02:25:42;;;;;;;9.70;3.75;;;;;;;24.09;50.46;98445.41;4963289;28;20026;-75
2022/09/01 02:28:14;;;;;;;9.25;3.92;;;;;;;24.11;50.37;98445.19;4961948;28;20421;-75
2022/09/01 02:30:40;;;;;;;9.68;3.67;;;;;;;24.09;50.13;98433.94;4976047;28;20034;-74
2022/09/01 02:33:07;;;;;;;11.52;4.05;;;;;;;24.13;49.81;98435.13;4943798;28;20031;-74
2022/09/01 02:35:36;;;;;;;7.53;3.47;;;;;;;24.16;49.67;98432.03;4976441;28;20030;-75
2022/09/01 02:38:05;;;;;;;8.32;3.58;;;;;;;24.17;49.47;98431.00;4976731;28;20034;-75
2022/09/01 02:40:31;;;;;;;9.60;3.65;;;;;;;24.15;49.48;98427.75;4960847;28;20022;-75
2022/09/01 02:42:58;;;;;;;10.02;3.88;;;;;;;24.16;49.35;98414.19;4943636;28;20070;-74
2022/09/01 02:45:25;;;;;;;11.82;3.70;;;;;;;24.20;49.24;98419.91;4959908;28;20038;-75
2022/09/01 02:47:52;;;;;;;9.70;3.47;;;;;;;24.22;49.27;98433.03;4944146;28;20136;-74
2022/09/01 02:50:18;;;;;;;8.85;3.65;;;;;;;24.22;49.19;98433.84;4960980;28;20034;-74
2022/09/01 02:52:47;;;;;;;9.70;4.18;;;;;;;24.25;49.21;98432.63;4944328;28;20041;-75
2022/09/01 02:55:13;;;;;;;12.32;3.50;;;;;;;24.26;49.03;98436.91;4980719;28;20033;-74
2022/09/01 02:57:39;;;;;;;10.60;4.03;;;;;;;24.22;49.13;98427.72;4963282;28;20501;-75
2022/09/01 03:00:19;;;;;;;8.15;3.83;;;;;;;24.25;49.14;98432.63;4979730;28;20053;-74
2022/09/01 03:02:47;;;;;;;10.27;3.70;;;;;;;24.21;49.25;98426.91;4981099;28;20030;-74
2022/09/01 03:05:15;;;;;;;8.82;4.07;;;;;;;24.27;49.15;98434.03;4979702;28;20034;-74
2022/09/01 03:07:41;;;;;;;13.05;3.70;;;;;;;24.26;49.27;98429.75;4964180;28;20136;-76
2022/09/01 03:10:08;;;;;;;10.55;3.47;;;;;;;24.29;49.36;98447.16;4959930;28;20382;-74
2022/09/01 03:12:34;;;;;;;13.38;4.13;;;;;;;24.29;49.06;98441.81;4976038;28;20062;-74
2022/09/01 03:15:00;;;;;;;7.97;3.78;;;;;;;24.30;49.13;98444.25;4960018;28;20504;-74
2022/09/01 03:17:25;;;;;;;9.85;3.50;;;;;;;24.34;49.41;98448.16;4944445;28;20046;-73
2022/09/01 03:19:51;;;;;;;6.93;3.20;;;;;;;24.34;49.42;98447.34;4979074;28;20037;-72
2022/09/01 03:22:16;;;;;;;10.95;3.55;;;;;;;24.34;49.50;98448.16;4979339;28;20038;-72
2022/09/01 03:24:42;;;;;;;13.23;4.18;;;;;;;24.36;49.77;98451.41;4979249;28;20460;-73
2022/09/01 03:27:10;;;;;;;11.65;4.10;;;;;;;24.33;49.88;98451.84;4979425;28;20504;-74
2022/09/01 03:29:37;;;;;;;;;;;;;;;24.31;49.96;98453.91;4996053;28;20076;-74
2022/09/01 03:32:03;;;;;;;9.65;3.70;;;;;;;24.25;49.91;98454.75;4995262;28;19913;-74
2022/09/01 03:34:33;;;;;;;10.63;3.78;;;;;;;24.23;49.95;98454.16;4979146;28;20030;-74
2022/09/01 03:36:58;;;;;;;8.75;3.90;;;;;;;24.18;50.03;98454.00;4964767;28;20084;-74
2022/09/01 03:39:24;;;;;;;10.80;4.05;;;;;;;24.20;49.85;98447.41;4979549;28;20525;-74
2022/09/01 03:41:49;;;;;;;9.93;4.18;;;;;;;24.26;49.85;98453.75;4963101;28;20041;-74
2022/09/01 03:44:15;;;;;;;11.13;4.30;;;;;;;24.26;49.75;98443.06;4962659;28;20034;-73
2022/09/01 03:46:42;;;;;;;9.55;4.32;;;;;;;24.24;49.76;98441.63;4994874;28;20037;-75
2022/09/01 03:49:13;;;;;;;9.90;4.38;;;;;;;24.27;49.79;98444.69;4963177;28;20026;-73
2022/09/01 03:51:41;;;;;;;12.23;4.68;;;;;;;24.37;49.93;98444.25;4981043;28;20018;-74
2022/09/01 03:54:07;;;;;;;8.38;4.45;;;;;;;24.52;49.49;98446.63;4975238;28;20089;-75
2022/09/01 03:56:32;;;;;;;7.57;3.72;;;;;;;24.72;49.11;98450.00;4959477;28;20038;-74
2022/09/01 03:58:58;;;;;;;11.15;4.28;;;;;;;24.91;48.60;98458.09;4959396;28;20041;-74
2022/09/01 04:01:27;;;;;;;7.78;3.95;;;;;;;25.15;48.19;98456.47;4943191;28;20046;-74
2022/09/01 04:03:53;;;;;;;9.85;4.00;;;;;;;25.38;47.45;98455.06;4959785;28;20038;-74
2022/09/01 04:06:22;;;;;;;10.85;3.90;;;;;;;25.70;46.78;98455.78;4959625;28;20508;-74
2022/09/01 04:08:48;;;;;;;12.43;4.00;;;;;;;25.93;46.15;98449.75;4944167;28;20178;-74
2022/09/01 04:11:17;;;;;;;11.18;3.92;;;;;;;26.18;45.77;98457.69;4962132;28;20069;-74
2022/09/01 04:13:43;;;;;;;15.73;4.40;;;;;;;26.58;44.51;98467.06;4979108;28;20053;-74
2022/09/01 04:18:04;;;;;;;13.77;3.80;;;;;;;26.94;43.40;98468.00;4978546;28;20096;-74
2022/09/01 04:19:14;;;;;;;13.05;3.95;;;;;;;27.30;42.48;98471.53;4984343;28;20041;-74
2022/09/01 04:21:41;;;;;;;11.80;4.28;;;;;;;27.68;41.66;98477.53;4996694;28;20504;-74
2022/09/01 04:24:08;;;;;;;;;;;;;;;28.09;40.46;98468.50;4995490;28;20092;-76
2022/09/01 04:26:33;;;;;;;10.30;4.20;;;;;;;28.54;40.00;98476.84;4978920;28;19917;-74
2022/09/01 04:28:59;;;;;;;9.48;3.80;;;;;;;29.00;38.92;98469.63;4962967;28;20057;-76
2022/09/01 04:31:30;;;;;;;9.98;4.30;;;;;;;29.46;38.12;98466.84;4980476;28;20037;-77
2022/09/01 04:33:57;;;;;;;14.57;4.30;;;;;;;30.07;36.77;98478.44;5006545;28;20121;-75
2022/09/01 04:36:29;;;;;;;16.85;4.15;;;;;;;30.49;35.88;98458.22;4992175;28;20033;-74
2022/09/01 04:38:59;;;;;;;13.05;4.22;;;;;;;30.95;34.61;98468.63;5013635;28;20149;-75
2022/09/01 04:41:29;;;;;;;15.77;4.53;;;;;;;31.27;33.68;98468.63;4992290;28;20026;-76
2022/09/01 04:43:55;;;;;;;12.20;4.40;;;;;;;31.79;33.38;98460.88;4977035;28;20033;-75
2022/09/01 04:46:21;;;;;;;15.27;4.22;;;;;;;32.33;32.51;98465.13;4983997;28;20023;-76
2022/09/01 04:48:50;;;;;;;12.32;4.13;;;;;;;32.74;32.05;98462.53;4957890;28;20471;-75
2022/09/01 04:51:16;;;;;;;13.15;4.03;;;;;;;33.24;31.47;98463.63;4942763;28;20092;-75
2022/09/01 04:53:47;;;;;;;11.63;4.07;;;;;;;33.61;30.63;98465.19;4958479;28;20167;-75
2022/09/01 04:56:18;;;;;;;12.00;4.10;;;;;;;33.93;29.76;98455.88;4959735;28;20026;-76
2022/09/01 04:58:45;;;;;;;16.33;4.40;;;;;;;34.15;29.22;98458.22;4978733;28;20069;-76
2022/09/01 05:01:22;;;;;;;14.82;4.35;;;;;;;34.27;28.89;98465.22;4961114;28;20100;-75
2022/09/01 05:03:58;;;;;;;22.35;4.72;;;;;;;34.67;28.69;98458.75;4962290;28;20044;-74
2022/09/01 05:06:23;;;;;;;20.65;4.45;;;;;;;35.04;27.58;98457.38;4973654;28;20401;-74
2022/09/01 05:08:50;;;;;;;23.35;4.35;;;;;;;35.49;26.89;98470.84;4982070;28;20048;-76
2022/09/01 05:11:16;;;;;;;20.00;4.15;;;;;;;35.55;27.19;98461.56;4981505;28;20064;-75
2022/09/01 05:13:46;;;;;;;24.05;4.88;;;;;;;35.75;26.75;98467.84;4981653;28;20407;-76
2022/09/01 05:16:15;;;;;;;20.70;4.22;;;;;;;35.93;26.45;98469.00;4981985;28;20046;-74
2022/09/01 05:18:44;;;;;;;18.05;4.68;;;;;;;36.12;26.43;98463.59;4981903;28;20033;-74
2022/09/01 05:21:10;;;;;;;20.02;4.28;;;;;;;36.24;25.40;98463.97;4982699;28;20041;-75
2022/09/01 05:23:39;;;;;;;23.08;4.40;;;;;;;36.46;25.47;98477.03;4965821;28;20030;-76
2022/09/01 05:26:13;;;;;;;15.02;4.28;;;;;;;36.75;25.16;98474.19;4966154;28;20045;-76
2022/09/01 05:28:40;;;;;;;11.55;3.78;;;;;;;37.08;25.14;98476.09;4983741;28;20026;-78
2022/09/01 05:31:06;;;;;;;30.48;4.97;;;;;;;37.64;24.46;98475.09;4998623;28;20465;-78
2022/09/01 05:33:35;;;;;;;15.65;4.72;;;;;;;38.26;23.74;98481.25;4985760;28;20492;-75
2022/09/01 05:36:03;;;;;;;21.50;4.43;;;;;;;38.95;22.83;98481.03;4966782;28;20029;-76
2022/09/01 05:38:30;;;;;;;16.58;4.32;;;;;;;39.51;22.46;98486.19;4981879;28;20125;-74
2022/09/01 05:41:07;;;;;;;26.08;4.07;;;;;;;39.93;22.61;98482.00;4980651;28;20132;-75
2022/09/01 05:43:32;;;;;;;20.17;4.68;;;;;;;40.34;21.91;98469.88;4963287;28;20038;-75
2022/09/01 05:46:00;;;;;;;11.27;4.20;;;;;;;40.82;21.52;98473.56;4961885;28;20041;-74
2022/09/01 05:48:25;;;;;;;;;;;;;;;41.13;21.39;98472.56;4978370;28;20080;-75
2022/09/01 05:50:56;;;;;;;14.67;5.00;;;;;;;41.57;20.81;98473.25;4977813;28;19914;-76
2022/09/01 05:53:24;;;;;;;9.63;4.80;;;;;;;41.96;20.38;98481.47;4962115;28;20050;-74
2022/09/01 05:55:51;;;;;;;13.25;5.00;;;;;;;42.20;20.42;98477.31;4995416;28;20038;-75
2022/09/01 05:58:18;;;;;;;21.38;4.90;;;;;;;42.44;20.10;98484.84;4977912;28;20022;-74
2022/09/01 06:00:47;;;;;;;8.70;4.75;;;;;;;42.65;19.81;98482.94;4993683;28;20030;-74
2022/09/01 06:03:14;;;;;;;10.77;4.43;;;;;;;42.84;19.68;98484.34;4977855;28;20030;-75
2022/09/01 06:05:41;;;;;;;15.75;5.25;;;;;;;43.00;19.64;98492.78;4977836;28;20045;-75
2022/09/01 06:08:09;;;;;;;10.60;5.10;;;;;;;43.10;19.53;98495.13;4977335;28;20030;-77
2022/09/01 06:10:38;;;;;;;11.60;4.65;;;;;;;43.21;19.13;98498.22;4983092;28;20033;-75
2022/09/01 06:13:05;;;;;;;9.43;5.20;;;;;;;43.33;19.09;98497.44;4981016;28;20103;-78
2022/09/01 06:15:31;;;;;;;12.10;5.28;;;;;;;43.38;19.34;98489.03;4980688;28;20033;-77
2022/09/01 06:17:57;;;;;;;13.73;5.37;;;;;;;43.50;19.12;98499.22;4954221;28;20109;-76
2022/09/01 06:20:25;;;;;;;9.48;5.25;;;;;;;43.56;19.07;98492.34;4942770;28;20495;-76
2022/09/01 06:22:52;;;;;;;16.42;5.20;;;;;;;43.63;19.24;98495.31;4942103;28;20486;-76
2022/09/01 06:25:29;;;;;;;11.43;4.82;;;;;;;43.69;18.94;98495.91;4957944;28;20530;-77
2022/09/01 06:27:56;;;;;;;8.98;4.30;;;;;;;43.71;18.44;98502.66;4974093;28;20805;-74
2022/09/01 06:30:25;;;;;;;;;;;;;;;43.68;18.70;98503.34;4974295;28;20034;-79
2022/09/01 06:32:54;;;;;;;11.25;4.82;;;;;;;43.80;18.37;98499.81;4958382;28;19914;-77
2022/09/01 06:35:20;;;;;;;14.25;4.38;;;;;;;43.87;18.37;98501.97;4958040;28;20037;-76
2022/09/01 06:37:49;;;;;;;12.63;4.70;;;;;;;43.84;18.43;98500.75;4942041;28;20509;-79
2022/09/01 06:40:18;;;;;;;15.07;4.65;;;;;;;43.91;18.45;98500.94;4988766;28;20039;-75
2022/09/01 06:43:10;;;;;;;12.02;4.40;;;;;;;43.91;18.20;98500.94;4992325;28;20028;-77
2022/09/01 06:45:53;;;;;;;13.88;4.40;;;;;;;44.02;18.13;98497.75;4992330;28;20050;-77
2022/09/01 06:48:18;;;;;;;16.60;4.63;;;;;;;44.11;18.28;98495.66;4977257;28;20041;-77
2022/09/01 06:50:44;;;;;;;17.83;4.57;;;;;;;44.09;18.16;98498.78;4975647;28;20034;-76
2022/09/01 06:53:34;;;;;;;15.87;4.60;;;;;;;44.15;17.63;98498.53;4976296;28;20037;-80
2022/09/01 06:56:01;;;;;;;10.88;4.43;;;;;;;44.22;17.92;98504.28;4982774;28;20676;-77
2022/09/01 06:58:28;;;;;;;12.05;4.50;;;;;;;44.21;17.77;98503.47;4995602;28;20100;-78
2022/09/01 07:00:57;;;;;;;10.80;4.50;;;;;;;44.22;17.95;98505.06;4996364;28;20069;-78
2022/09/01 07:03:27;;;;;;;11.88;4.55;;;;;;;44.23;17.73;98509.44;4980512;28;20468;-77
2022/09/01 07:05:54;;;;;;;10.10;4.20;;;;;;;44.27;17.56;98498.53;4996905;28;20029;-80
2022/09/01 07:08:22;;;;;;;9.88;4.78;;;;;;;44.27;18.08;98501.28;4996152;28;20036;-82
2022/09/01 07:10:54;;;;;;;8.57;4.47;;;;;;;44.30;17.68;98500.59;4980011;28;20038;-75
2022/09/01 07:13:24;;;;;;;12.68;4.18;;;;;;;44.13;17.69;98500.81;4979694;28;20038;-72
2022/09/01 07:15:54;;;;;;;16.00;4.70;;;;;;;44.08;16.64;98502.66;4996513;28;20042;-81
2022/09/01 07:18:26;;;;;;;15.20;4.75;;;;;;;44.09;16.54;98504.28;4996150;28;20045;-75
2022/09/01 07:21:08;;;;;;;27.55;6.40;;;;;;;44.06;16.64;98495.88;5008717;28;20559;-77
2022/09/01 07:23:37;;;;;;;24.47;6.20;;;;;;;44.09;16.89;98503.44;4975553;28;20095;-80
2022/09/01 07:26:05;;;;;;;26.90;7.10;;;;;;;44.09;16.85;98503.44;4992697;28;20041;-81
2022/09/01 07:28:31;;;;;;;26.48;7.63;;;;;;;44.18;16.54;98506.09;4976914;28;20061;-79
2022/09/01 07:30:57;;;;;;;18.95;6.28;;;;;;;44.18;16.68;98506.88;4979026;28;20034;-79
2022/09/01 07:33:24;;;;;;;24.77;8.00;;;;;;;44.23;16.63;98506.69;4976704;28;20539;-83
2022/09/01 07:35:54;;;;;;;24.27;5.85;;;;;;;44.22;17.08;98512.53;4979624;28;20058;-85
2022/09/01 07:38:20;;;;;;;19.38;5.38;;;;;;;44.09;16.90;98501.53;4981784;28;20034;-81
2022/09/01 07:40:46;;;;;;;;;;;;;;;44.05;16.81;98511.59;4968411;28;20039;-79
2022/09/01 07:43:18;;;;;;;28.07;5.90;;;;;;;44.10;16.47;98505.06;4964813;28;19914;-84
2022/09/01 07:45:47;;;;;;;18.92;5.03;;;;;;;43.89;17.50;98506.00;4949305;28;20031;-81
2022/09/01 07:48:21;;;;;;;21.20;5.50;;;;;;;43.84;17.09;98495.25;4980329;28;20030;-80
2022/09/01 07:50:50;;;;;;;16.38;5.47;;;;;;;43.88;17.05;98506.34;4951400;28;20501;-85
2022/09/01 07:53:23;;;;;;;21.27;5.60;;;;;;;43.95;16.72;98497.50;4980350;28;20034;-78
2022/09/01 07:55:49;;;;;;;14.82;4.90;;;;;;;43.99;16.72;98492.94;4972135;28;20105;-78
2022/09/01 07:58:16;;;;;;;17.52;4.72;;;;;;;44.01;16.59;98499.69;4971680;28;20054;-82
2022/09/01 08:00:48;;;;;;;18.13;4.53;;;;;;;43.97;16.07;98495.25;4950333;28;20033;-78
2022/09/01 08:03:16;;;;;;;15.20;4.43;;;;;;;43.88;17.71;98498.09;4966997;28;20065;-79
2022/09/01 08:05:42;;;;;;;13.15;4.65;;;;;;;43.87;17.21;98494.56;4980273;28;20111;-78
2022/09/01 08:08:08;;;;;;;13.37;4.60;;;;;;;43.93;16.94;98500.59;4976583;28;20031;-75
2022/09/01 08:10:37;;;;;;;11.57;4.33;;;;;;;44.02;16.71;98497.75;4979866;28;20027;-80
2022/09/01 08:13:02;;;;;;;14.93;3.72;;;;;;;44.04;16.58;98501.72;4955965;28;20027;-80
2022/09/01 08:15:28;;;;;;;12.03;4.23;;;;;;;43.96;16.31;98490.88;4976619;28;20031;-79
2022/09/01 08:17:53;;;;;;;11.97;3.23;;;;;;;43.98;16.40;98494.06;4952179;28;20070;-82
2022/09/01 08:20:20;;;;;;;16.47;4.27;;;;;;;44.03;16.40;98500.16;4969600;28;20105;-80
2022/09/01 08:22:47;;;;;;;12.70;3.70;;;;;;;43.99;16.55;98485.47;4981096;28;20477;-82
2022/09/01 08:25:14;;;;;;;;;;;;;;;43.99;15.96;98498.44;4973052;28;20117;-80
2022/09/01 08:27:51;;;;;;;13.38;4.80;;;;;;;44.03;16.27;98500.16;4980255;28;19914;-82
2022/09/01 08:30:19;;;;;;;13.05;4.10;;;;;;;43.80;15.70;98488.81;4977850;28;20409;-83
2022/09/01 08:32:51;;;;;;;8.95;3.50;;;;;;;43.88;15.76;98490.63;4968291;28;20031;-82
2022/09/01 08:35:18;;;;;;;9.52;3.60;;;;;;;43.89;15.81;98494.22;4975734;28;20039;-82
2022/09/01 08:37:47;;;;;;;;;;;;;;;43.83;15.52;98490.09;4970399;28;20035;-84
2022/09/01 08:40:14;;;;;;;11.38;3.83;;;;;;;43.82;15.57;98486.53;4983172;28;19997;-79
2022/09/01 08:42:39;;;;;;;11.40;3.50;;;;;;;43.78;15.62;98490.31;4950055;28;20038;-80
2022/09/01 08:45:32;;;;;;;9.17;3.67;;;;;;;43.68;15.86;98483.28;4983738;28;20025;-80
2022/09/01 08:48:13;;;;;;;12.90;4.07;;;;;;;43.68;16.13;98484.13;4971682;28;20023;-79
2022/09/01 08:50:39;;;;;;;15.02;3.80;;;;;;;43.59;15.89;98480.69;4949973;28;20081;-77
2022/09/01 08:53:29;;;;;;;7.50;3.17;;;;;;;43.42;16.18;98478.94;4965458;28;20030;-80
2022/09/01 08:55:55;;;;;;;14.25;3.63;;;;;;;43.41;16.06;98474.59;4982266;28;20022;-79
2022/09/01 08:58:21;;;;;;;9.15;3.60;;;;;;;43.39;16.20;98476.88;4973350;28;20501;-78
2022/09/01 09:01:06;;;;;;;9.20;3.60;;;;;;;43.36;16.53;98472.84;4967105;28;20027;-78
2022/09/01 09:04:04;;;;;;;11.53;3.33;;;;;;;43.32;16.28;98477.41;4970475;28;20026;-79
2022/09/01 09:06:35;;;;;;;9.85;3.17;;;;;;;43.18;16.16;98466.75;4951550;29;20722;-78
2022/09/01 09:09:08;;;;;;;10.18;3.50;;;;;;;42.93;16.45;98456.84;4931348;29;20117;-77
2022/09/01 09:11:55;;;;;;;8.30;3.10;;;;;;;42.89;16.74;98466.88;4905937;29;20141;-79
2022/09/01 09:14:39;;;;;;;10.30;3.78;;;;;;;42.84;16.89;98465.16;4934974;29;20039;-79
2022/09/01 09:17:05;;;;;;;10.02;3.45;;;;;;;42.76;16.95;98457.81;4920501;29;20047;-81
2022/09/01 09:19:36;;;;;;;10.80;3.57;;;;;;;42.65;16.97;98460.16;4921949;29;20027;-81
2022/09/01 09:22:09;;;;;;;10.35;3.70;;;;;;;42.51;17.46;98456.88;4920602;29;20035;-80
2022/09/01 09:24:54;;;;;;;11.43;3.13;;;;;;;42.39;17.34;98457.63;4921296;29;20066;-79
2022/09/01 09:27:22;;;;;;;12.60;3.28;;;;;;;42.20;17.60;98453.41;4918415;29;20032;-81
2022/09/01 09:29:52;;;;;;;11.88;3.47;;;;;;;42.02;17.76;98447.25;4906280;29;20050;-80
2022/09/01 09:32:18;;;;;;;11.52;3.70;;;;;;;41.87;17.63;98445.09;4953155;29;20027;-78
2022/09/01 09:34:46;;;;;;;9.70;3.87;;;;;;;41.72;18.11;98444.53;4922271;29;20051;-81
2022/09/01 09:37:16;;;;;;;10.00;3.80;;;;;;;41.58;18.22;98443.94;4922227;29;20466;-80
2022/09/01 09:39:43;;;;;;;9.35;3.70;;;;;;;41.43;18.38;98442.53;4950486;29;20039;-78
2022/09/01 09:42:12;;;;;;;12.30;4.07;;;;;;;41.33;18.55;98443.72;4927115;28;20104;-78
2022/09/01 09:44:51;;;;;;;10.27;3.78;;;;;;;41.19;18.63;98437.63;4975868;28;20022;-86
2022/09/01 09:47:42;;;;;;;14.57;4.85;;;;;;;41.04;18.75;98441.69;4977172;28;20147;-84
2022/09/01 09:50:37;;;;;;;13.73;4.60;;;;;;;40.92;19.11;98442.34;4982272;28;20097;-83
2022/09/01 09:53:16;;;;;;;10.10;3.90;;;;;;;40.76;19.06;98435.78;4987666;28;20558;-82
2022/09/01 09:56:16;;;;;;;10.88;3.92;;;;;;;40.35;19.28;98432.41;4983191;28;20027;-84
2022/09/01 09:58:44;;;;;;;10.65;3.63;;;;;;;40.27;19.23;98420.34;4981725;28;20035;-75
2022/09/01 10:01:15;;;;;;;11.65;3.78;;;;;;;40.15;19.35;98420.16;4956979;28;20082;-82
2022/09/01 10:03:56;;;;;;;10.00;3.70;;;;;;;39.99;19.46;98408.91;4973839;28;20039;-77
2022/09/01 10:06:33;;;;;;;13.30;3.70;;;;;;;39.89;19.64;98411.91;4958448;28;20030;-75
2022/09/01 10:09:00;;;;;;;11.00;3.92;;;;;;;39.79;19.86;98415.75;4958836;28;20026;-74
2022/09/01 10:11:38;;;;;;;17.38;4.07;;;;;;;39.62;19.50;98419.25;4942743;28;20038;-75
2022/09/01 10:14:13;;;;;;;15.57;3.72;;;;;;;39.49;19.99;98412.75;4959198;28;20061;-78
2022/09/01 10:16:41;;;;;;;10.98;3.63;;;;;;;39.33;20.10;98408.84;4959407;28;20055;-77
2022/09/01 10:19:10;;;;;;;9.98;3.97;;;;;;;39.20;19.99;98403.16;4959111;28;20031;-79
2022/09/01 10:21:37;;;;;;;14.18;4.40;;;;;;;39.08;20.52;98413.88;4957943;28;20061;-75
2022/09/01 10:24:29;;;;;;;13.90;4.03;;;;;;;38.89;19.83;98414.88;4958220;28;20403;-77
2022/09/01 10:26:57;;;;;;;13.18;3.50;;;;;;;38.78;19.94;98409.97;4956695;28;20040;-75
2022/09/01 10:29:31;;;;;;;13.30;3.75;;;;;;;38.64;20.22;98408.13;4957984;28;20030;-76
2022/09/01 10:31:57;;;;;;;12.50;4.10;;;;;;;38.51;20.68;98398.88;4958216;28;20118;-76
2022/09/01 10:34:23;;;;;;;10.85;3.60;;;;;;;38.43;20.30;98396.91;4941891;28;20520;-75
2022/09/01 10:36:49;;;;;;;17.70;3.80;;;;;;;38.33;20.50;98399.84;4941421;28;20109;-76
2022/09/01 10:39:16;;;;;;;13.02;3.90;;;;;;;38.17;20.69;98392.03;4941601;28;20031;-76
2022/09/01 10:41:42;;;;;;;12.95;3.78;;;;;;;38.01;21.00;98396.19;4957852;28;20042;-74
2022/09/01 10:44:09;;;;;;;10.60;3.10;;;;;;;37.90;21.46;98397.53;4957664;28;20110;-75
2022/09/01 10:46:35;;;;;;;17.30;3.80;;;;;;;37.81;21.61;98387.38;4942376;28;20438;-75
2022/09/01 10:49:00;;;;;;;15.35;3.90;;;;;;;37.74;21.78;98388.88;4974645;28;20510;-75
2022/09/01 10:51:26;;;;;;;16.50;3.88;;;;;;;37.67;22.19;98386.56;4941605;28;20094;-78
2022/09/01 10:53:56;;;;;;;12.30;3.70;;;;;;;37.52;22.62;98379.50;4976424;28;20478;-77
2022/09/01 10:56:42;;;;;;;11.32;3.70;;;;;;;37.35;23.22;98384.75;4967412;28;20117;-77
2022/09/01 10:59:11;;;;;;;11.02;4.10;;;;;;;37.28;23.35;98380.50;4966331;28;20019;-74
2022/09/01 11:01:40;;;;;;;10.63;3.78;;;;;;;37.18;23.56;98386.13;4981879;28;20037;-74
2022/09/01 11:04:15;;;;;;;10.70;3.58;;;;;;;37.02;23.65;98363.84;4980642;28;20034;-73
2022/09/01 11:06:41;;;;;;;17.00;3.97;;;;;;;36.93;23.56;98380.03;4955747;28;20577;-75
2022/09/01 11:09:29;;;;;;;13.95;3.90;;;;;;;36.80;23.90;98378.13;4982928;28;20105;-76
2022/09/01 11:12:00;;;;;;;8.73;3.72;;;;;;;36.74;23.61;98376.59;4981634;28;20027;-74
2022/09/01 11:14:26;;;;;;;9.80;3.70;;;;;;;36.63;23.73;98372.41;4966094;28;20027;-75
2022/09/01 11:17:21;;;;;;;11.75;3.78;;;;;;;36.47;23.77;98356.34;4946196;28;20069;-75
2022/09/01 11:19:59;;;;;;;16.30;3.90;;;;;;;36.39;24.16;98357.03;4931761;28;20027;-76
2022/09/01 11:22:30;;;;;;;13.10;4.07;;;;;;;36.33;24.58;98352.78;4961885;28;20031;-75
2022/09/01 11:25:06;;;;;;;11.43;4.53;;;;;;;36.20;24.89;98346.94;4944442;28;20089;-75
2022/09/01 11:27:50;;;;;;;12.82;4.00;;;;;;;36.13;24.57;98356.56;4962361;28;20039;-80
2022/09/01 11:30:20;;;;;;;14.52;4.35;;;;;;;35.97;24.09;98345.13;4964837;28;20093;-83
2022/09/01 11:32:47;;;;;;;12.02;4.18;;;;;;;35.87;24.12;98340.66;4959539;28;20037;-74
2022/09/01 11:35:17;;;;;;;15.10;3.70;;;;;;;35.80;24.14;98340.19;4943268;28;20019;-75
2022/09/01 11:37:46;;;;;;;11.48;3.80;;;;;;;35.73;23.93;98337.03;4944351;28;20058;-76
2022/09/01 11:40:12;;;;;;;10.75;3.70;;;;;;;35.65;23.99;98341.19;4933922;29;20032;-78
2022/09/01 11:42:39;;;;;;;14.13;3.63;;;;;;;35.57;23.83;98339.94;4929859;28;20107;-78
2022/09/01 11:45:22;;;;;;;12.57;3.85;;;;;;;35.44;24.41;98336.03;4950912;28;20034;-77